Time;durP1;ratioP1;P1;durP2;ratioP2;P2;SDS_P1;SDS_P2;PMS_P1;PMS_P2;Temp;Humidity;BMP_temperature;BMP_pressure;BME280_temperature;BME280_humidity;BME280_pressure;Samples;Min_cycle;Max_cycle;Signal;HPM_P1;HPM_P2
2022/01/06 00:01:25;;;;;;;9.73;2.55;;;3.40;99.90;;;;;;5082110;28;20040;-70
2022/01/06 00:03:52;;;;;;;12.15;3.33;;;3.40;99.90;;;;;;5080589;28;20058;-70
2022/01/06 00:06:18;;;;;;;24.17;3.15;;;3.30;99.90;;;;;;5083428;28;20028;-70
2022/01/06 00:08:45;;;;;;;17.88;2.45;;;3.40;99.90;;;;;;5084624;28;20043;-70
2022/01/06 00:11:11;;;;;;;13.93;3.47;;;3.50;99.90;;;;;;5083720;28;20036;-70
2022/01/06 00:14:54;;;;;;;12.52;2.35;;;3.20;99.90;;;;;;5080957;28;20461;-69
2022/01/06 00:17:21;;;;;;;18.38;2.78;;;3.30;99.90;;;;;;5066796;28;20060;-70
2022/01/06 00:24:52;;;;;;;11.82;3.40;;;3.10;99.90;;;;;;5087907;28;20123;-70
2022/01/06 00:27:18;;;;;;;19.83;3.20;;;3.10;99.90;;;;;;5085791;28;20127;-69
2022/01/06 00:29:44;;;;;;;16.73;3.72;;;3.00;99.90;;;;;;5081913;28;20047;-70
2022/01/06 00:32:10;;;;;;;27.58;3.25;;;2.90;99.90;;;;;;5102708;28;20461;-69
2022/01/06 00:34:36;;;;;;;19.10;2.22;;;3.20;99.90;;;;;;5082120;28;20048;-69
2022/01/06 00:37:02;;;;;;;15.52;2.90;;;3.20;99.90;;;;;;5068422;28;20570;-69
2022/01/06 00:39:29;;;;;;;15.32;3.30;;;3.30;99.90;;;;;;5081396;28;20179;-69
2022/01/06 00:41:57;;;;;;;21.00;4.03;;;4.00;99.90;;;;;;5082756;28;20051;-69
2022/01/06 00:44:23;;;;;;;13.95;2.90;;;3.40;99.90;;;;;;5084255;28;20063;-69
2022/01/06 00:46:50;;;;;;;16.85;2.50;;;3.20;99.90;;;;;;5064870;28;20033;-69
2022/01/06 00:49:17;;;;;;;14.00;2.17;;;3.30;99.90;;;;;;5087268;28;20068;-69
2022/01/06 00:51:43;;;;;;;17.38;2.70;;;3.50;99.90;;;;;;5086723;28;20039;-69
2022/01/06 00:54:10;;;;;;;19.10;2.90;;;3.30;99.90;;;;;;5085351;28;20127;-69
2022/01/06 00:56:35;;;;;;;16.85;2.97;;;3.30;99.90;;;;;;5080629;28;20047;-69
2022/01/06 00:59:02;;;;;;;16.20;2.60;;;3.30;99.90;;;;;;5082967;28;20103;-69
2022/01/06 01:01:27;;;;;;;12.93;2.70;;;3.20;99.90;;;;;;5085021;28;20446;-69
2022/01/06 01:03:53;;;;;;;13.85;2.55;;;3.00;99.90;;;;;;5087402;28;20037;-69
2022/01/06 01:06:19;;;;;;;15.68;2.13;;;3.10;99.90;;;;;;5082551;28;20028;-70
2022/01/06 01:08:45;;;;;;;14.30;3.42;;;3.20;99.90;;;;;;5085011;28;20403;-70
2022/01/06 01:11:11;;;;;;;18.02;3.08;;;3.00;99.90;;;;;;5084971;28;20047;-69
2022/01/06 01:13:53;;;;;;;17.73;3.17;;;3.40;99.90;;;;;;5081299;28;20055;-69
2022/01/06 01:16:24;;;;;;;11.15;2.10;;;3.10;99.90;;;;;;5083921;28;20040;-69
2022/01/06 01:18:50;;;;;;;13.52;2.50;;;3.00;99.90;;;;;;5081920;28;20039;-69
2022/01/06 01:21:17;;;;;;;8.38;1.98;;;2.90;99.90;;;;;;5084792;28;20036;-69
2022/01/06 01:23:43;;;;;;;16.70;2.50;;;3.10;99.90;;;;;;5085868;28;20067;-69
2022/01/06 01:26:08;;;;;;;13.57;2.03;;;3.10;99.90;;;;;;5059554;28;20152;-69
2022/01/06 01:28:43;;;;;;;11.18;2.30;;;2.90;99.90;;;;;;5082586;28;20391;-69
2022/01/06 01:33:44;;;;;;;10.30;2.88;;;2.90;99.90;;;;;;5080908;28;20040;-69
2022/01/06 01:36:13;;;;;;;10.95;2.20;;;2.80;99.90;;;;;;5088547;28;20613;-69
2022/01/06 01:38:39;;;;;;;15.90;2.63;;;3.10;99.90;;;;;;5088736;28;20036;-69
2022/01/06 01:41:07;;;;;;;11.32;1.95;;;3.10;99.90;;;;;;5090104;28;20040;-69
2022/01/06 01:43:34;;;;;;;10.68;1.85;;;2.90;99.90;;;;;;5088085;28;20036;-69
2022/01/06 01:46:09;;;;;;;16.42;2.97;;;2.80;99.90;;;;;;5099240;28;20093;-69
2022/01/06 01:48:38;;;;;;;9.88;2.22;;;3.00;99.90;;;;;;5107560;28;20101;-69
2022/01/06 01:51:04;;;;;;;14.85;2.65;;;3.00;99.90;;;;;;5088915;28;20044;-69
2022/01/06 01:53:29;;;;;;;22.38;2.55;;;3.00;99.90;;;;;;5086577;28;20600;-69
2022/01/06 01:55:55;;;;;;;13.85;2.70;;;3.10;99.90;;;;;;5107241;28;20035;-70
2022/01/06 01:58:22;;;;;;;15.73;2.78;;;3.10;99.90;;;;;;5090815;28;20499;-69
2022/01/06 02:00:47;;;;;;;14.75;2.30;;;2.90;99.90;;;;;;5095763;28;20131;-69
2022/01/06 02:03:13;;;;;;;9.70;1.95;;;2.90;99.90;;;;;;5093265;28;20442;-69
2022/01/06 02:05:39;;;;;;;14.52;3.92;;;2.80;99.90;;;;;;5090248;28;20032;-69
2022/01/06 02:08:05;;;;;;;15.48;2.85;;;3.00;99.90;;;;;;5108209;27;20096;-69
2022/01/06 02:10:32;;;;;;;19.55;4.03;;;2.70;99.90;;;;;;5073111;28;20040;-69
2022/01/06 02:13:00;;;;;;;9.93;1.98;;;2.80;99.90;;;;;;5071867;28;20426;-69
2022/01/06 02:15:26;;;;;;;13.38;2.45;;;3.50;99.90;;;;;;5090794;28;20047;-69
2022/01/06 02:17:52;;;;;;;16.58;4.45;;;2.90;99.90;;;;;;5110112;28;20028;-69
2022/01/06 02:20:21;;;;;;;9.63;2.30;;;3.30;99.90;;;;;;5088158;28;20459;-70
2022/01/06 02:22:47;;;;;;;11.50;2.28;;;2.90;99.90;;;;;;5086266;28;20081;-69
2022/01/06 02:25:13;;;;;;;10.10;1.77;;;2.90;99.90;;;;;;5085972;28;20043;-69
2022/01/06 02:27:39;;;;;;;15.65;3.13;;;2.90;99.90;;;;;;5110821;28;20535;-69
2022/01/06 02:30:06;;;;;;;14.13;2.28;;;3.00;99.90;;;;;;5099539;28;20035;-69
2022/01/06 02:32:32;;;;;;;15.00;2.53;;;2.80;99.90;;;;;;5092747;28;20043;-69
2022/01/06 02:34:57;;;;;;;9.38;2.45;;;2.80;99.90;;;;;;5088764;28;20039;-69
2022/01/06 02:37:23;;;;;;;18.98;3.80;;;2.90;99.90;;;;;;5072449;28;20065;-69
2022/01/06 02:39:49;;;;;;;7.35;1.98;;;3.30;99.90;;;;;;5095647;28;20044;-69
2022/01/06 02:42:14;;;;;;;15.00;2.33;;;2.80;99.90;;;;;;5108997;28;20036;-69
2022/01/06 02:44:40;;;;;;;10.80;1.83;;;3.60;99.90;;;;;;5087384;28;20074;-69
2022/01/06 02:47:07;;;;;;;11.35;2.58;;;2.80;99.90;;;;;;5053619;28;20051;-69
2022/01/06 02:49:33;;;;;;;18.67;3.13;;;3.00;99.90;;;;;;5082314;28;20531;-69
2022/01/06 02:52:00;;;;;;;15.57;3.58;;;;;;;;;;5087794;28;20475;-69
2022/01/06 02:54:26;;;;;;;15.60;2.75;;;2.60;99.90;;;;;;5084360;28;20051;-69
2022/01/06 02:56:52;;;;;;;14.38;2.15;;;2.70;99.90;;;;;;5068287;28;20042;-69
2022/01/06 02:59:18;;;;;;;17.50;2.63;;;2.70;99.90;;;;;;5086453;28;20046;-69
2022/01/06 03:01:44;;;;;;;14.80;2.45;;;2.70;99.90;;;;;;5087086;28;20036;-69
2022/01/06 03:04:11;;;;;;;15.95;2.67;;;2.70;99.90;;;;;;5086405;28;20039;-69
2022/01/06 03:06:38;;;;;;;18.58;3.08;;;2.70;99.90;;;;;;5083149;28;20048;-69
2022/01/06 03:09:05;;;;;;;13.50;2.88;;;2.80;99.90;;;;;;5085450;28;20050;-69
2022/01/06 03:11:32;;;;;;;11.55;2.25;;;2.80;99.90;;;;;;5086288;28;20448;-70
2022/01/06 03:13:59;;;;;;;12.93;2.60;;;2.80;99.90;;;;;;5086569;28;20039;-69
2022/01/06 03:16:24;;;;;;;13.90;2.70;;;2.90;99.90;;;;;;5085028;28;20047;-69
2022/01/06 03:18:50;;;;;;;13.82;2.45;;;2.90;99.90;;;;;;5087846;28;20039;-69
2022/01/06 03:21:16;;;;;;;19.77;3.90;;;2.90;99.90;;;;;;5085936;28;20036;-69
2022/01/06 03:23:42;;;;;;;16.05;2.80;;;2.90;99.90;;;;;;5083581;28;20452;-69
2022/01/06 03:26:07;;;;;;;16.15;2.45;;;2.90;99.90;;;;;;5088346;28;20082;-69
2022/01/06 03:28:33;;;;;;;11.90;2.75;;;2.90;99.90;;;;;;5085053;28;20442;-69
2022/01/06 03:30:59;;;;;;;16.70;2.78;;;2.80;99.90;;;;;;5050104;28;20139;-69
2022/01/06 03:33:25;;;;;;;17.20;3.35;;;2.80;99.90;;;;;;5081950;28;20044;-69
2022/01/06 03:35:51;;;;;;;10.50;2.50;;;2.80;99.90;;;;;;5084653;28;20042;-70
2022/01/06 03:38:17;;;;;;;13.25;2.53;;;2.80;99.90;;;;;;5084135;28;20432;-69
2022/01/06 03:40:42;;;;;;;14.68;3.22;;;2.80;99.90;;;;;;5087227;28;20399;-69
2022/01/06 03:43:09;;;;;;;12.45;2.95;;;2.80;99.90;;;;;;5088520;28;20142;-69
2022/01/06 03:45:35;;;;;;;20.63;3.10;;;2.80;99.90;;;;;;5045748;28;1098698;-69
2022/01/06 03:48:03;;;;;;;16.17;3.15;;;2.70;99.90;;;;;;5085184;28;20090;-69
2022/01/06 03:50:30;;;;;;;13.77;3.47;;;2.70;99.90;;;;;;5084956;28;20044;-69
2022/01/06 03:52:56;;;;;;;20.85;4.57;;;2.70;99.90;;;;;;5084464;28;20036;-69
2022/01/06 03:55:21;;;;;;;14.82;3.53;;;2.60;99.90;;;;;;5063282;28;20040;-69
2022/01/06 03:57:48;;;;;;;17.63;2.72;;;2.60;99.90;;;;;;5086679;28;20039;-69
2022/01/06 04:00:17;;;;;;;17.83;2.35;;;3.00;99.90;;;;;;5081723;28;20086;-69
2022/01/06 04:02:44;;;;;;;11.98;2.15;;;2.50;99.90;;;;;;5084783;28;20465;-69
2022/01/06 04:05:11;;;;;;;12.93;3.00;;;2.40;99.90;;;;;;5081421;28;20488;-69
2022/01/06 04:07:38;;;;;;;7.70;2.60;;;3.70;99.90;;;;;;5080253;28;20036;-69
2022/01/06 04:10:05;;;;;;;10.95;2.00;;;2.30;99.90;;;;;;5081575;28;20068;-69
2022/01/06 04:12:34;;;;;;;14.00;2.92;;;2.20;99.90;;;;;;5087790;28;20039;-69
2022/01/06 04:14:59;;;;;;;17.80;2.65;;;2.20;99.90;;;;;;5070413;28;20377;-69
2022/01/06 04:17:25;;;;;;;12.35;2.60;;;2.10;99.90;;;;;;5075935;28;20127;-69
2022/01/06 04:19:51;;;;;;;15.50;2.50;;;2.00;99.90;;;;;;5068935;28;20467;-69
2022/01/06 04:22:17;;;;;;;10.50;2.50;;;1.90;99.90;;;;;;5086151;28;20032;-69
2022/01/06 04:24:43;;;;;;;13.98;2.50;;;1.80;99.90;;;;;;5084779;28;20647;-69
2022/01/06 04:27:08;;;;;;;12.50;2.95;;;1.70;99.90;;;;;;5086931;28;20067;-69
2022/01/06 04:29:34;;;;;;;15.63;2.30;;;1.60;99.90;;;;;;5086694;28;20405;-69
2022/01/06 04:32:00;;;;;;;14.80;2.65;;;1.60;99.90;;;;;;5068335;28;20441;-69
2022/01/06 04:34:25;;;;;;;17.80;2.67;;;1.50;99.90;;;;;;5086498;28;20038;-69
2022/01/06 04:36:54;;;;;;;15.05;2.33;;;1.50;99.90;;;;;;5084512;28;20498;-69
2022/01/06 04:39:20;;;;;;;16.52;3.40;;;1.50;99.90;;;;;;5085754;28;20032;-69
2022/01/06 04:41:46;;;;;;;21.15;5.18;;;2.30;99.90;;;;;;5086325;28;20089;-69
2022/01/06 04:44:12;;;;;;;18.70;2.50;;;1.60;99.90;;;;;;5084313;28;20614;-69
2022/01/06 04:46:37;;;;;;;16.90;3.28;;;1.60;99.90;;;;;;5085529;28;20052;-69
2022/01/06 04:49:04;;;;;;;16.40;2.83;;;1.60;99.90;;;;;;5083212;28;20457;-69
2022/01/06 04:51:30;;;;;;;14.25;2.72;;;1.70;99.90;;;;;;5063188;28;20037;-69
2022/01/06 04:53:56;;;;;;;13.60;2.55;;;1.60;99.90;;;;;;5082631;28;20092;-69
2022/01/06 04:56:22;;;;;;;17.80;2.85;;;1.70;99.90;;;;;;5068427;28;20516;-69
2022/01/06 04:58:48;;;;;;;19.50;2.92;;;1.50;99.90;;;;;;5082885;28;20036;-69
2022/01/06 05:01:15;;;;;;;23.65;2.95;;;1.60;99.90;;;;;;5080577;28;20082;-69
2022/01/06 05:03:40;;;;;;;18.00;3.25;;;1.50;99.90;;;;;;5071827;28;20036;-69
2022/01/06 05:06:06;;;;;;;13.48;2.35;;;1.50;99.90;;;;;;5063755;28;20131;-69
2022/01/06 05:08:32;;;;;;;13.73;3.75;;;1.50;99.90;;;;;;5079355;28;20079;-69
2022/01/06 05:10:58;;;;;;;11.50;3.50;;;1.50;99.90;;;;;;5081713;28;20072;-69
2022/01/06 05:13:24;;;;;;;15.98;3.13;;;1.50;99.90;;;;;;5082108;28;20040;-69
2022/01/06 05:15:49;;;;;;;19.58;2.70;;;1.50;99.90;;;;;;5082161;28;20051;-69
2022/01/06 05:18:15;;;;;;;14.68;2.60;;;1.50;99.90;;;;;;5081247;28;20042;-69
2022/01/06 05:20:42;;;;;;;18.02;2.67;;;1.40;99.90;;;;;;5080027;28;20039;-69
2022/01/06 05:23:10;;;;;;;18.77;2.83;;;1.40;99.90;;;;;;5078683;28;20093;-69
2022/01/06 05:25:35;;;;;;;13.95;2.55;;;1.40;99.90;;;;;;5055052;28;20422;-69
2022/01/06 05:28:01;;;;;;;14.38;2.40;;;1.40;99.90;;;;;;5084776;28;20047;-69
2022/01/06 05:30:27;;;;;;;11.40;2.90;;;1.50;99.90;;;;;;5066606;28;20036;-69
2022/01/06 05:32:52;;;;;;;14.55;2.72;;;1.40;99.90;;;;;;5058670;28;20454;-69
2022/01/06 05:35:19;;;;;;;20.98;3.30;;;1.30;99.90;;;;;;5081709;28;20039;-69
2022/01/06 05:37:44;;;;;;;12.02;2.78;;;1.40;99.90;;;;;;5083901;28;20125;-70
2022/01/06 05:40:11;;;;;;;13.20;2.55;;;1.30;99.90;;;;;;5080655;28;20476;-69
2022/01/06 05:42:37;;;;;;;16.88;2.92;;;1.40;99.90;;;;;;5067961;28;20040;-69
2022/01/06 05:45:04;;;;;;;11.75;2.72;;;1.40;99.90;;;;;;5097228;28;20048;-69
2022/01/06 05:47:29;;;;;;;11.73;2.80;;;1.40;99.90;;;;;;5105810;28;20037;-69
2022/01/06 05:49:55;;;;;;;14.90;2.42;;;1.40;99.90;;;;;;5088481;28;20123;-69
2022/01/06 05:52:21;;;;;;;15.90;2.92;;;1.40;99.90;;;;;;5089622;28;20042;-69
2022/01/06 05:54:46;;;;;;;14.73;3.33;;;1.40;99.90;;;;;;5070711;28;20453;-69
2022/01/06 05:57:13;;;;;;;13.85;2.72;;;1.50;99.90;;;;;;5088854;28;20187;-69
2022/01/06 05:59:39;;;;;;;17.83;2.67;;;1.40;99.90;;;;;;5103608;28;20063;-69
2022/01/06 06:02:05;;;;;;;17.67;2.92;;;1.40;99.90;;;;;;5104756;28;20074;-69
2022/01/06 06:04:31;;;;;;;12.13;2.55;;;1.40;99.90;;;;;;5090412;28;20048;-69
2022/01/06 06:06:56;;;;;;;15.93;2.72;;;1.40;99.90;;;;;;5090038;28;20124;-69
2022/01/06 06:09:22;;;;;;;14.30;2.40;;;1.40;99.90;;;;;;5067197;28;20510;-69
2022/01/06 06:11:48;;;;;;;15.13;2.47;;;1.60;99.90;;;;;;5085674;28;20082;-69
2022/01/06 06:14:14;;;;;;;10.88;2.28;;;1.40;99.90;;;;;;5088159;28;20041;-69
2022/01/06 06:16:40;;;;;;;14.95;2.55;;;2.10;99.90;;;;;;5095434;28;20470;-68
2022/01/06 06:19:06;;;;;;;18.65;2.78;;;1.50;99.90;;;;;;5097947;28;20104;-69
2022/01/06 06:21:31;;;;;;;15.25;3.63;;;1.40;99.90;;;;;;5106898;28;20142;-69
2022/01/06 06:23:57;;;;;;;22.95;2.65;;;1.30;99.90;;;;;;5109858;28;20043;-69
2022/01/06 06:26:23;;;;;;;13.57;4.15;;;1.30;99.90;;;;;;5107152;28;20027;-68
2022/01/06 06:28:48;;;;;;;12.85;2.33;;;1.30;99.90;;;;;;5110562;28;20043;-69
2022/01/06 06:31:14;;;;;;;15.80;2.83;;;1.30;99.90;;;;;;5102693;28;20032;-69
2022/01/06 06:33:40;;;;;;;16.88;2.35;;;1.30;99.90;;;;;;5086211;28;20039;-69
2022/01/06 06:36:06;;;;;;;13.35;2.47;;;1.90;99.90;;;;;;5091455;28;20347;-69
2022/01/06 06:38:31;;;;;;;19.08;3.47;;;1.20;99.90;;;;;;5088559;28;20067;-69
2022/01/06 06:40:57;;;;;;;11.27;2.45;;;1.20;99.90;;;;;;5093219;28;20164;-69
2022/01/06 06:43:23;;;;;;;13.40;2.35;;;1.10;99.90;;;;;;5091896;28;20460;-69
2022/01/06 06:45:48;;;;;;;18.27;2.53;;;1.20;99.90;;;;;;5091863;28;20491;-70
2022/01/06 06:48:14;;;;;;;17.80;2.65;;;1.10;99.90;;;;;;5073215;28;20059;-69
2022/01/06 06:50:40;;;;;;;14.60;3.20;;;1.20;99.90;;;;;;5092821;28;20495;-69
2022/01/06 06:53:07;;;;;;;14.50;2.38;;;1.30;99.90;;;;;;5091094;28;20035;-69
2022/01/06 06:55:33;;;;;;;17.88;3.78;;;1.20;99.90;;;;;;5077433;28;20104;-69
2022/01/06 06:57:59;;;;;;;23.45;3.22;;;1.20;99.90;;;;;;5087296;28;20040;-69
2022/01/06 07:00:25;;;;;;;17.77;2.58;;;1.20;99.90;;;;;;5087059;28;20415;-69
2022/01/06 07:02:51;;;;;;;15.02;3.80;;;1.20;99.90;;;;;;5053295;28;20071;-69
2022/01/06 07:05:17;;;;;;;13.23;2.60;;;1.20;99.90;;;;;;5065846;28;20036;-69
2022/01/06 07:07:44;;;;;;;14.07;2.13;;;1.20;99.90;;;;;;5085499;28;20483;-69
2022/01/06 07:10:10;;;;;;;14.63;3.15;;;1.20;99.90;;;;;;5088526;28;20054;-69
2022/01/06 07:12:44;;;;;;;14.40;2.78;;;1.20;99.90;;;;;;5087077;28;20062;-69
2022/01/06 07:15:12;;;;;;;15.15;2.72;;;1.20;99.90;;;;;;5088721;28;20058;-69
2022/01/06 07:17:38;;;;;;;19.90;3.22;;;1.20;99.90;;;;;;5089267;28;20524;-69
2022/01/06 07:20:04;;;;;;;15.20;2.80;;;1.20;99.90;;;;;;5090143;28;20043;-69
2022/01/06 07:22:30;;;;;;;12.05;2.53;;;1.10;99.90;;;;;;5091226;28;20040;-69
2022/01/06 07:24:56;;;;;;;17.20;4.35;;;1.20;99.90;;;;;;5087107;28;20050;-69
2022/01/06 07:27:22;;;;;;;15.85;2.92;;;1.20;99.90;;;;;;5069734;28;20043;-69
2022/01/06 07:29:48;;;;;;;14.13;2.80;;;1.20;99.90;;;;;;5085755;28;20035;-70
2022/01/06 07:32:13;;;;;;;20.42;4.70;;;1.20;99.90;;;;;;5085067;28;20404;-69
2022/01/06 07:34:39;;;;;;;13.55;2.53;;;1.20;99.90;;;;;;5069743;28;20067;-69
2022/01/06 07:37:05;;;;;;;16.90;3.95;;;1.20;99.90;;;;;;5050398;28;20043;-69
2022/01/06 07:39:30;;;;;;;11.75;2.65;;;1.20;99.90;;;;;;5086750;28;20548;-69
2022/01/06 07:41:57;;;;;;;17.05;2.97;;;1.20;99.90;;;;;;5084809;28;20047;-69
2022/01/06 07:44:22;;;;;;;14.07;2.63;;;1.10;99.90;;;;;;5086220;28;20136;-69
2022/01/06 07:46:48;;;;;;;12.63;2.20;;;1.20;99.90;;;;;;5078797;28;20443;-69
2022/01/06 07:49:15;;;;;;;19.02;2.90;;;1.20;99.90;;;;;;5084861;28;20047;-69
2022/01/06 07:51:40;;;;;;;10.85;2.28;;;1.20;99.90;;;;;;5085565;28;20123;-70
2022/01/06 07:54:07;;;;;;;20.20;3.65;;;1.30;99.90;;;;;;5079757;28;20173;-69
2022/01/06 07:56:33;;;;;;;14.27;3.08;;;1.30;99.90;;;;;;5081666;28;20120;-68
2022/01/06 07:58:59;;;;;;;14.50;2.58;;;1.30;99.90;;;;;;5083431;28;20275;-69
2022/01/06 08:01:25;;;;;;;22.65;3.35;;;1.30;99.90;;;;;;5059112;28;20040;-69
2022/01/06 08:03:51;;;;;;;16.10;2.97;;;1.30;99.90;;;;;;5088833;28;20057;-70
2022/01/06 08:06:17;;;;;;;15.60;4.10;;;1.30;99.90;;;;;;5089590;28;20085;-69
2022/01/06 08:08:43;;;;;;;21.73;3.42;;;1.30;99.90;;;;;;5067616;28;20043;-69
2022/01/06 08:11:10;;;;;;;19.75;2.50;;;1.30;99.90;;;;;;5069623;28;20498;-70
2022/01/06 08:13:36;;;;;;;18.90;3.85;;;1.30;99.90;;;;;;5078408;28;20039;-69
2022/01/06 08:16:02;;;;;;;15.23;3.42;;;1.30;99.90;;;;;;5085366;28;20050;-69
2022/01/06 08:18:28;;;;;;;12.93;3.95;;;1.30;99.90;;;;;;5078307;28;20048;-69
2022/01/06 08:20:53;;;;;;;21.35;3.22;;;1.30;99.90;;;;;;5073867;28;20202;-69
2022/01/06 08:23:19;;;;;;;13.70;3.30;;;1.30;99.90;;;;;;5094578;28;20040;-69
2022/01/06 08:25:46;;;;;;;16.63;3.22;;;1.20;99.90;;;;;;5065715;28;20028;-69
2022/01/06 08:28:11;;;;;;;18.02;3.60;;;1.30;99.90;;;;;;5089735;28;20043;-69
2022/01/06 08:30:37;;;;;;;21.67;5.18;;;1.30;99.90;;;;;;5087830;28;20050;-69
2022/01/06 08:33:03;;;;;;;21.23;4.03;;;1.20;99.90;;;;;;5086088;28;20085;-69
2022/01/06 08:35:30;;;;;;;19.52;3.80;;;1.30;99.90;;;;;;5084540;28;20048;-69
2022/01/06 08:37:56;;;;;;;17.30;2.90;;;1.30;99.90;;;;;;5103266;28;20343;-69
2022/01/06 08:40:22;;;;;;;18.30;2.97;;;1.30;99.90;;;;;;5085072;28;20034;-71
2022/01/06 08:42:48;;;;;;;16.52;2.92;;;1.30;99.90;;;;;;5102056;28;20043;-69
2022/01/06 08:45:16;;;;;;;21.23;2.88;;;1.50;99.90;;;;;;5099419;28;20552;-70
2022/01/06 08:47:43;;;;;;;15.75;3.65;;;1.30;99.90;;;;;;5088922;28;20085;-70
2022/01/06 08:50:09;;;;;;;21.65;3.45;;;1.40;99.90;;;;;;5069293;28;20039;-70
2022/01/06 08:52:37;;;;;;;22.40;4.30;;;1.50;99.90;;;;;;5070568;28;20047;-70
2022/01/06 08:55:05;;;;;;;9.82;2.97;;;1.70;99.90;;;;;;5087982;28;20415;-70
2022/01/06 08:57:31;;;;;;;19.75;3.65;;;1.60;99.90;;;;;;5069941;28;20054;-70
2022/01/06 08:59:58;;;;;;;16.30;4.07;;;2.30;99.90;;;;;;5087687;28;20415;-70
2022/01/06 09:02:24;;;;;;;18.88;2.75;;;1.70;99.90;;;;;;5100610;28;20109;-70
2022/01/06 09:04:50;;;;;;;21.30;2.85;;;1.80;99.90;;;;;;5089284;28;20100;-70
2022/01/06 09:07:16;;;;;;;18.95;3.00;;;1.80;99.90;;;;;;5082296;28;20043;-70
2022/01/06 09:09:42;;;;;;;19.42;3.28;;;1.90;99.90;;;;;;5083546;28;20043;-70
2022/01/06 09:12:08;;;;;;;20.52;5.72;;;1.90;99.90;;;;;;5078108;28;20391;-70
2022/01/06 09:14:34;;;;;;;20.35;3.28;;;2.00;99.90;;;;;;5082066;28;20032;-70
2022/01/06 09:17:00;;;;;;;24.08;4.25;;;2.30;99.90;;;;;;5082735;28;20031;-69
2022/01/06 09:19:26;;;;;;;10.68;2.60;;;2.00;99.90;;;;;;5089158;28;20463;-70
2022/01/06 09:21:52;;;;;;;20.63;3.10;;;2.10;99.90;;;;;;5086683;28;20071;-70
2022/01/06 09:24:18;;;;;;;14.52;3.22;;;2.10;99.90;;;;;;5091485;28;20074;-69
2022/01/06 09:26:44;;;;;;;14.68;4.00;;;2.50;99.90;;;;;;5100165;28;20032;-69
2022/01/06 09:29:13;;;;;;;17.85;3.35;;;2.10;99.90;;;;;;5066968;28;20044;-69
2022/01/06 09:31:41;;;;;;;15.85;2.97;;;2.20;99.90;;;;;;5070148;28;20040;-69
2022/01/06 09:34:08;;;;;;;29.83;4.18;;;2.20;99.90;;;;;;5089457;28;20039;-70
2022/01/06 09:36:34;;;;;;;15.85;3.38;;;2.20;99.90;;;;;;5086666;28;20519;-70
2022/01/06 09:39:01;;;;;;;18.38;3.72;;;2.30;99.90;;;;;;5084776;28;20829;-70
2022/01/06 09:41:27;;;;;;;23.27;4.55;;;2.30;99.90;;;;;;5099177;28;20050;-70
2022/01/06 09:44:00;;;;;;;18.08;3.03;;;2.40;99.90;;;;;;5087302;28;20073;-70
2022/01/06 09:46:27;;;;;;;16.75;2.65;;;2.40;99.90;;;;;;5089128;28;20044;-69
2022/01/06 09:48:57;;;;;;;15.68;2.88;;;2.60;99.90;;;;;;5086302;28;20101;-69
2022/01/06 09:51:24;;;;;;;21.65;3.72;;;2.50;99.90;;;;;;5084811;28;20055;-69
2022/01/06 09:53:54;;;;;;;12.63;3.38;;;2.60;99.90;;;;;;5086508;28;20039;-70
2022/01/06 09:56:20;;;;;;;17.80;3.42;;;2.60;99.90;;;;;;5091339;28;20050;-69
2022/01/06 09:58:46;;;;;;;16.58;3.13;;;2.70;99.90;;;;;;5087930;28;20035;-69
2022/01/06 10:01:12;;;;;;;19.08;4.18;;;2.70;99.90;;;;;;5091030;28;20028;-69
2022/01/06 10:03:44;;;;;;;19.35;3.28;;;2.70;99.90;;;;;;5108635;28;20430;-69
2022/01/06 10:06:25;;;;;;;14.90;3.47;;;2.70;99.90;;;;;;5089260;28;20028;-69
2022/01/06 10:08:56;;;;;;;19.70;4.03;;;2.70;99.90;;;;;;5096671;27;20039;-70
2022/01/06 10:11:28;;;;;;;12.63;2.60;;;2.70;99.90;;;;;;5092200;28;20042;-70
2022/01/06 10:14:05;;;;;;;30.83;4.80;;;2.70;99.90;;;;;;5109946;27;20425;-70
2022/01/06 10:16:32;;;;;;;17.10;3.22;;;2.80;99.90;;;;;;5108746;27;20078;-70
2022/01/06 10:19:04;;;;;;;13.90;3.10;;;2.70;99.90;;;;;;5092772;28;20067;-70
2022/01/06 10:21:39;;;;;;;21.83;4.65;;;2.80;99.90;;;;;;5092560;28;20330;-70
2022/01/06 10:24:08;;;;;;;32.80;9.82;;;2.80;99.90;;;;;;5096286;28;20093;-70
2022/01/06 10:26:36;;;;;;;32.47;7.15;;;2.80;99.90;;;;;;5073796;28;20052;-69
2022/01/06 10:29:06;;;;;;;16.50;3.50;;;2.90;99.90;;;;;;5091287;28;20031;-70
2022/01/06 10:31:32;;;;;;;16.67;3.70;;;3.30;99.90;;;;;;5089993;28;20089;-69
2022/01/06 10:33:58;;;;;;;11.02;3.47;;;3.00;99.90;;;;;;5089544;28;20398;-69
2022/01/06 10:36:29;;;;;;;22.10;3.67;;;3.00;99.90;;;;;;5108918;28;20475;-69
2022/01/06 10:38:57;;;;;;;14.43;3.08;;;3.10;99.90;;;;;;5084705;28;20126;-69
2022/01/06 10:41:27;;;;;;;17.08;2.92;;;3.10;99.90;;;;;;5082223;28;20048;-69
2022/01/06 10:43:58;;;;;;;18.10;3.25;;;3.20;99.90;;;;;;5093537;28;20108;-69
2022/01/06 10:46:40;;;;;;;17.08;3.47;;;3.30;99.90;;;;;;5094127;28;20123;-69
2022/01/06 10:49:07;;;;;;;13.70;3.25;;;3.40;99.90;;;;;;5106072;28;20118;-69
2022/01/06 10:51:42;;;;;;;27.50;3.40;;;3.50;99.90;;;;;;5075716;28;20032;-69
2022/01/06 10:54:21;;;;;;;19.05;5.55;;;3.60;99.90;;;;;;5075979;28;20043;-69
2022/01/06 10:57:19;;;;;;;17.05;3.75;;;3.80;99.90;;;;;;5085227;28;20051;-70
2022/01/06 10:59:45;;;;;;;15.80;3.65;;;3.70;99.90;;;;;;5059635;28;20040;-70
2022/01/06 11:02:25;;;;;;;16.52;3.60;;;3.80;99.90;;;;;;5089762;28;20123;-70
2022/01/06 11:04:50;;;;;;;14.90;3.25;;;3.90;99.90;;;;;;5088343;28;20027;-69
2022/01/06 11:07:17;;;;;;;20.45;3.38;;;4.00;99.90;;;;;;5089505;28;20449;-69
2022/01/06 11:09:47;;;;;;;10.90;3.03;;;4.60;99.90;;;;;;5090918;28;20051;-69
2022/01/06 11:12:27;;;;;;;18.83;3.17;;;4.10;99.90;;;;;;5071540;28;20079;-69
2022/01/06 11:14:53;;;;;;;18.50;3.75;;;4.20;99.90;;;;;;5088984;28;20066;-69
2022/01/06 11:17:21;;;;;;;22.10;3.92;;;4.30;99.90;;;;;;5109798;28;20043;-69
2022/01/06 11:19:51;;;;;;;18.30;3.60;;;4.20;99.90;;;;;;5080934;28;20514;-69
2022/01/06 11:22:27;;;;;;;14.52;2.88;;;4.50;99.90;;;;;;5088918;28;20040;-69
2022/01/06 11:24:59;;;;;;;18.15;2.88;;;4.60;99.90;;;;;;5055901;28;20057;-69
2022/01/06 11:27:34;;;;;;;26.73;4.00;;;4.70;99.90;;;;;;5090458;28;20043;-69
2022/01/06 11:30:14;;;;;;;13.35;3.38;;;4.70;99.90;;;;;;5069703;28;20044;-69
2022/01/06 11:32:42;;;;;;;27.27;5.57;;;4.80;99.90;;;;;;5108642;28;20039;-69
2022/01/06 11:35:15;;;;;;;17.23;3.58;;;4.90;99.90;;;;;;5091412;28;20047;-69
2022/01/06 11:37:49;;;;;;;9.85;2.67;;;5.10;99.90;;;;;;5090378;28;20108;-70
2022/01/06 11:40:27;;;;;;;17.67;3.25;;;5.20;99.90;;;;;;5090645;28;20446;-70
2022/01/06 11:42:54;;;;;;;21.90;4.63;;;5.40;99.90;;;;;;5107430;28;20039;-70
2022/01/06 11:45:22;;;;;;;18.92;3.15;;;5.50;99.90;;;;;;5079959;28;20070;-70
2022/01/06 11:48:03;;;;;;;16.30;3.45;;;6.00;99.90;;;;;;5051551;28;20442;-70
2022/01/06 11:50:36;;;;;;;15.68;3.63;;;5.80;99.90;;;;;;5068272;28;20032;-70
2022/01/06 11:53:04;;;;;;;17.95;4.50;;;;;;;;;;5069921;28;20408;-70
2022/01/06 11:55:48;;;;;;;18.80;5.05;;;5.90;99.90;;;;;;5069752;28;20044;-70
2022/01/06 11:58:19;;;;;;;24.00;4.38;;;6.20;99.90;;;;;;5059226;28;20095;-70
2022/01/06 12:01:14;;;;;;;16.83;4.13;;;6.30;99.90;;;;;;5069086;28;20036;-71
2022/01/06 12:03:46;;;;;;;18.10;3.33;;;6.70;99.90;;;;;;5045537;28;20052;-70
2022/01/06 12:06:41;;;;;;;20.42;3.28;;;7.00;99.90;;;;;;5067781;28;20107;-70
2022/01/06 12:09:23;;;;;;;15.75;3.97;;;7.20;99.90;;;;;;5057817;28;20091;-70
2022/01/06 12:12:03;;;;;;;9.45;2.60;;;;;;;;;;5064259;28;20098;-70
2022/01/06 12:14:29;;;;;;;17.13;4.53;;;7.50;99.90;;;;;;5066687;28;20320;-70
2022/01/06 12:17:04;;;;;;;17.10;3.60;;;8.30;99.90;;;;;;5066059;28;20044;-70
2022/01/06 12:19:30;;;;;;;14.70;3.28;;;7.90;99.90;;;;;;5065776;28;20041;-70
2022/01/06 12:21:55;;;;;;;20.10;4.15;;;8.20;99.90;;;;;;5063996;28;20427;-70
2022/01/06 12:24:21;;;;;;;13.85;2.92;;;7.90;99.90;;;;;;5066254;28;20135;-70
2022/01/06 12:26:47;;;;;;;21.48;2.97;;;7.70;99.90;;;;;;5042698;28;20132;-70
2022/01/06 12:29:19;;;;;;;12.55;3.22;;;7.40;99.90;;;;;;5064226;28;20040;-70
2022/01/06 12:31:45;;;;;;;18.98;4.05;;;7.20;99.90;;;;;;5072565;28;20110;-70
2022/01/06 12:34:12;;;;;;;13.48;2.60;;;7.00;99.90;;;;;;5063610;28;20451;-70
2022/01/06 12:36:43;;;;;;;16.25;3.55;;;6.90;99.90;;;;;;5065437;28;20047;-69
2022/01/06 12:39:19;;;;;;;;;;;6.80;99.90;;;;;;5066601;28;20040;-69
2022/01/06 12:41:47;;;;;;;11.30;3.15;;;6.60;99.90;;;;;;5067225;28;19916;-70
2022/01/06 12:44:22;;;;;;;13.23;3.03;;;6.60;99.90;;;;;;5072502;28;20056;-70
2022/01/06 12:46:48;;;;;;;9.07;2.90;;;6.60;99.90;;;;;;5085938;28;20043;-69
2022/01/06 12:49:14;;;;;;;13.77;3.03;;;6.70;99.90;;;;;;5087646;28;20047;-69
2022/01/06 12:51:46;;;;;;;12.23;3.03;;;6.70;99.90;;;;;;5068537;28;20039;-69
2022/01/06 12:54:15;;;;;;;16.70;3.25;;;6.70;99.90;;;;;;5082571;28;20052;-70
2022/01/06 12:56:53;;;;;;;18.83;3.22;;;6.80;99.90;;;;;;5084977;28;20480;-70
2022/01/06 12:59:24;;;;;;;15.48;3.50;;;6.80;99.90;;;;;;5084648;28;20039;-70